Diggins, Missouri
Current Conditions -  °F | °C
As of 10:52 PM on Thursday 27 Nov 2014 (Local Time) from KSGF Reporting Station
Clear Clear  
Wind Chill: 26°   Ceiling: Unl
Heat Index: 34°   Visibility: 10mi
Dew Point: 21°   Wind: 10mph
Humidity: 59%   Direction: 160°SSE
Pressure: 30.31"   Gusts: NA
Location:  37.17°N, 92.85°W
Report Text: KSGF 280452Z 16009KT 10SM CLR 01/M06 A3031 RMK AO2 SLP275 T00111061
Loading
Personal Weather Stations






























Interactive Weather Map New forecast layout! Learn more

10-Day Weather Forecast

Advertisements
Track Severe Weather on mobile